TimeEST,TemperatureF,Dew PointF,Humidity,Sea Level PressureIn,VisibilityMPH,Wind Direction,Wind SpeedMPH,Gust SpeedMPH,PrecipitationIn,Events,Conditions,WindDirDegrees,DateUTC
12:15 AM,37.4,32.0,81,30.15,10.0,Calm,Calm,-,N/A,,Clear,0,2013-02-21 05:15:00
12:35 AM,39.2,30.2,70,30.15,10.0,Calm,Calm,-,N/A,,Clear,0,2013-02-21 05:35:00
12:55 AM,35.6,32.0,87,30.14,10.0,Calm,Calm,-,N/A,,Clear,0,2013-02-21 05:55:00
1:15 AM,37.4,30.2,75,30.14,10.0,Calm,Calm,-,N/A,,Clear,0,2013-02-21 06:15:00
1:35 AM,35.6,30.2,81,30.14,10.0,Calm,Calm,-,N/A,,Clear,0,2013-02-21 06:35:00
1:55 AM,35.6,32.0,87,30.13,10.0,Calm,Calm,-,N/A,,Clear,0,2013-02-21 06:55:00
2:15 AM,35.6,30.2,81,30.13,10.0,Calm,Calm,-,N/A,,Clear,0,2013-02-21 07:15:00
2:35 AM,35.6,30.2,81,30.13,10.0,Calm,Calm,-,N/A,,Clear,0,2013-02-21 07:35:00
2:55 AM,33.8,30.2,87,30.13,10.0,Calm,Calm,-,N/A,,Clear,0,2013-02-21 07:55:00
3:15 AM,33.8,32.0,93,30.13,10.0,Calm,Calm,-,N/A,,Clear,0,2013-02-21 08:15:00
3:35 AM,35.6,30.2,81,30.13,10.0,Calm,Calm,-,N/A,,Clear,0,2013-02-21 08:35:00
3:55 AM,35.6,30.2,81,30.12,10.0,Calm,Calm,-,N/A,,Clear,0,2013-02-21 08:55:00
4:15 AM,35.6,30.2,81,30.12,10.0,Calm,Calm,-,N/A,,Clear,0,2013-02-21 09:15:00
4:35 AM,35.6,30.2,81,30.12,10.0,Calm,Calm,-,N/A,,Clear,0,2013-02-21 09:35:00
4:55 AM,37.4,23.0,56,30.12,10.0,North,3.5,-,N/A,,Clear,360,2013-02-21 09:55:00
5:15 AM,39.2,19.4,45,30.13,10.0,Calm,Calm,-,N/A,,Clear,0,2013-02-21 10:15:00
5:35 AM,39.2,19.4,45,30.14,10.0,Calm,Calm,-,N/A,,Clear,0,2013-02-21 10:35:00
5:55 AM,39.2,19.4,45,30.14,10.0,Calm,Calm,-,N/A,,Clear,0,2013-02-21 10:55:00
6:15 AM,39.2,19.4,45,30.15,10.0,Calm,Calm,-,N/A,,Clear,0,2013-02-21 11:15:00
6:55 AM,33.8,26.6,75,30.17,10.0,Calm,Calm,-,N/A,,Clear,0,2013-02-21 11:55:00
7:15 AM,33.8,26.6,75,30.18,10.0,Calm,Calm,-,N/A,,Clear,0,2013-02-21 12:15:00
7:35 AM,33.8,32.0,93,30.19,10.0,Calm,Calm,-,N/A,,Clear,0,2013-02-21 12:35:00
7:55 AM,35.6,30.2,81,30.20,10.0,Calm,Calm,-,N/A,,Clear,0,2013-02-21 12:55:00
8:15 AM,37.4,28.4,70,30.21,10.0,Calm,Calm,-,N/A,,Clear,0,2013-02-21 13:15:00
8:35 AM,39.2,23.0,52,30.20,10.0,Calm,Calm,-,N/A,,Clear,0,2013-02-21 13:35:00
8:55 AM,42.8,21.2,42,30.21,10.0,Calm,Calm,-,N/A,,Clear,0,2013-02-21 13:55:00
9:15 AM,44.6,23.0,43,30.21,10.0,Calm,Calm,-,N/A,,Clear,0,2013-02-21 14:15:00
9:35 AM,46.4,19.4,34,30.21,10.0,NE,4.6,-,N/A,,Clear,50,2013-02-21 14:35:00
9:55 AM,48.2,19.4,32,30.21,10.0,ESE,4.6,-,N/A,,Clear,120,2013-02-21 14:55:00
10:15 AM,50.0,19.4,30,30.21,10.0,ESE,3.5,-,N/A,,Clear,110,2013-02-21 15:15:00
10:35 AM,51.8,19.4,28,30.21,10.0,South,3.5,-,N/A,,Clear,170,2013-02-21 15:35:00
10:55 AM,51.8,19.4,28,30.20,10.0,South,3.5,-,N/A,,Clear,170,2013-02-21 15:55:00
11:15 AM,53.6,19.4,26,30.19,10.0,South,3.5,-,N/A,,Clear,170,2013-02-21 16:15:00
11:35 AM,55.4,15.8,21,30.19,10.0,Calm,Calm,-,N/A,,Clear,0,2013-02-21 16:35:00
11:55 AM,59.0,14.0,17,30.17,10.0,Calm,Calm,-,N/A,,Clear,0,2013-02-21 16:55:00
12:15 PM,59.0,19.4,22,30.16,10.0,South,3.5,-,N/A,,Clear,190,2013-02-21 17:15:00
12:35 PM,60.8,23.0,23,30.15,10.0,SSE,3.5,-,N/A,,Clear,160,2013-02-21 17:35:00
12:55 PM,62.6,24.8,24,30.15,10.0,East,3.5,-,N/A,,Clear,80,2013-02-21 17:55:00
1:15 PM,62.6,28.4,27,30.13,10.0,Calm,Calm,-,N/A,,Clear,0,2013-02-21 18:15:00
1:35 PM,64.4,28.4,26,30.12,10.0,NE,4.6,-,N/A,,Clear,50,2013-02-21 18:35:00
1:55 PM,64.4,28.4,26,30.11,10.0,Calm,Calm,-,N/A,,Clear,0,2013-02-21 18:55:00
2:15 PM,68.0,28.4,23,30.09,10.0,ESE,4.6,-,N/A,,Clear,110,2013-02-21 19:15:00
2:35 PM,68.0,26.6,21,30.08,10.0,East,5.8,-,N/A,,Clear,90,2013-02-21 19:35:00
2:55 PM,68.0,24.8,20,30.08,10.0,SE,5.8,-,N/A,,Clear,140,2013-02-21 19:55:00
3:15 PM,69.8,24.8,18,30.08,10.0,ESE,5.8,-,N/A,,Clear,120,2013-02-21 20:15:00
3:35 PM,69.8,19.4,15,30.07,10.0,Calm,Calm,-,N/A,,Clear,0,2013-02-21 20:35:00
4:15 PM,69.8,19.4,15,30.06,10.0,SE,8.1,-,N/A,,Clear,140,2013-02-21 21:15:00
4:35 PM,69.8,14.0,12,30.06,10.0,SE,6.9,-,N/A,,Clear,140,2013-02-21 21:35:00
4:55 PM,69.8,12.2,11,30.06,10.0,SSE,8.1,-,N/A,,Clear,150,2013-02-21 21:55:00
5:15 PM,68.0,10.4,11,30.06,10.0,South,6.9,-,N/A,,Clear,170,2013-02-21 22:15:00
5:35 PM,66.2,14.0,13,30.05,10.0,SSE,5.8,-,N/A,,Clear,160,2013-02-21 22:35:00
5:55 PM,64.4,14.0,14,30.04,10.0,SE,5.8,-,N/A,,Clear,140,2013-02-21 22:55:00
6:15 PM,62.6,17.6,18,30.04,10.0,SSE,5.8,-,N/A,,Clear,150,2013-02-21 23:15:00
6:35 PM,62.6,17.6,18,30.04,10.0,SSE,5.8,-,N/A,,Clear,150,2013-02-21 23:35:00
6:55 PM,62.6,17.6,18,30.05,7.0,SE,5.8,-,N/A,,Clear,140,2013-02-21 23:55:00
7:15 PM,62.6,19.4,19,30.05,10.0,SSE,6.9,-,N/A,,Clear,160,2013-02-22 00:15:00
7:35 PM,60.8,19.4,20,30.06,10.0,South,5.8,-,N/A,,Clear,180,2013-02-22 00:35:00
7:55 PM,60.8,21.2,22,30.07,10.0,Calm,Calm,-,N/A,,Clear,0,2013-02-22 00:55:00
8:15 PM,59.0,21.2,23,30.06,10.0,Calm,Calm,-,N/A,,Clear,0,2013-02-22 01:15:00
8:35 PM,57.2,23.0,27,30.06,10.0,Calm,Calm,-,N/A,,Clear,0,2013-02-22 01:35:00
8:55 PM,51.8,32.0,47,30.06,10.0,Calm,Calm,-,N/A,,Clear,0,2013-02-22 01:55:00
9:15 PM,50.0,35.6,58,30.07,10.0,Calm,Calm,-,N/A,,Clear,0,2013-02-22 02:15:00
9:35 PM,46.4,37.4,71,30.08,10.0,Calm,Calm,-,N/A,,Clear,0,2013-02-22 02:35:00
9:55 PM,50.0,33.8,54,30.08,10.0,Calm,Calm,-,N/A,,Clear,0,2013-02-22 02:55:00
10:15 PM,50.0,33.8,54,30.08,10.0,ESE,3.5,-,N/A,,Clear,120,2013-02-22 03:15:00
10:35 PM,55.4,28.4,36,30.09,10.0,ESE,3.5,-,N/A,,Clear,120,2013-02-22 03:35:00
10:55 PM,51.8,30.2,44,30.09,10.0,ESE,4.6,-,N/A,,Clear,110,2013-02-22 03:55:00
11:15 PM,53.6,32.0,44,30.09,10.0,ESE,3.5,-,N/A,,Clear,120,2013-02-22 04:15:00
11:35 PM,53.6,32.0,44,30.09,10.0,Calm,Calm,-,N/A,,Clear,0,2013-02-22 04:35:00
11:55 PM,53.6,32.0,44,30.09,10.0,ESE,3.5,-,N/A,,Clear,120,2013-02-22 04:55:00